ADDS METAR Data INFO
IDs: Format: Raw Decoded Include TAF

Data at: 0012 UTC 25 Nov 2017

KEDC 242355Z AUTO 19003KT 8SM CLR 18/03 A2987 RMK AO2
KEDC 242335Z AUTO 18005KT 9SM CLR 19/03 A2986 RMK AO2
KEDC 242315Z AUTO 19005KT 10SM CLR 20/03 A2986 RMK AO2
KEDC 242255Z AUTO 18006KT 10SM CLR 21/03 A2986 RMK AO2
KEDC 242235Z AUTO 19010G14KT 8SM CLR 22/02 A2986 RMK AO2
KEDC 242215Z AUTO 20012G18KT 7SM CLR 23/02 A2987 RMK AO2
KEDC 242155Z AUTO 20010G16KT 8SM CLR 23/02 A2988 RMK AO2
KEDC 242135Z AUTO 20015G19KT 7SM CLR 23/02 A2987 RMK AO2
KEDC 242115Z AUTO 20013G19KT 8SM CLR 23/03 A2988 RMK AO2
KEDC 242055Z AUTO 18012G17KT 8SM CLR 23/03 A2988 RMK AO2
KEDC 242035Z AUTO 19013G20KT 8SM CLR 23/03 A2989 RMK AO2
KEDC 242015Z AUTO 19013G18KT 9SM CLR 23/03 A2989 RMK AO2
KEDC 241955Z AUTO 20012KT 8SM CLR 23/03 A2991 RMK AO2
KEDC 241935Z AUTO 19010G20KT 8SM CLR 23/03 A2992 RMK AO2
KEDC 241915Z AUTO 20011G18KT 8SM CLR 23/03 A2992 RMK AO2
KEDC 241855Z AUTO 20010G17KT 10SM CLR 23/03 A2994 RMK AO2
KEDC 241835Z AUTO 20010G15KT 10SM CLR 22/03 A2995 RMK AO2
KEDC 241815Z AUTO 20008KT 10SM CLR 22/03 A2997 RMK AO2
KEDC 241755Z AUTO 19010G15KT 10SM CLR 22/03 A2998 RMK AO2
KEDC 241735Z AUTO 20008KT 10SM CLR 21/03 A2999 RMK AO2
KEDC 241715Z AUTO 20009KT 10SM CLR 19/03 A3000 RMK AO2
KEDC 241655Z AUTO 21010G15KT 10SM CLR 19/02 A3000 RMK AO2
KEDC 241635Z AUTO 21009KT 10SM CLR 18/02 A3001 RMK AO2
KEDC 241615Z AUTO 20010KT 10SM CLR 17/02 A3002 RMK AO2
KEDC 241555Z AUTO 20007KT 10SM CLR 16/02 A3002 RMK AO2
KEDC 241535Z AUTO 20007KT 10SM CLR 14/02 A3002 RMK AO2
KEDC 241515Z AUTO 00000KT 10SM CLR 12/03 A3002 RMK AO2
KEDC 241455Z AUTO 00000KT 10SM CLR 10/02 A3002 RMK AO2
KEDC 241435Z AUTO 20004KT 5SM HZ CLR 09/02 A3003 RMK AO2
KEDC 241415Z AUTO 00000KT 5SM HZ CLR 08/02 A3002 RMK AO2
KEDC 241355Z AUTO 00000KT 3SM HZ CLR 07/01 A3003 RMK AO2
KEDC 241335Z AUTO 00000KT 9SM CLR 05/00 A3002 RMK AO2
KEDC 241315Z AUTO 00000KT 5SM HZ CLR 04/00 A3002 RMK AO2
KEDC 241255Z AUTO 00000KT 9SM CLR 05/00 A3002 RMK AO2
KEDC 241235Z AUTO 00000KT 10SM CLR 05/00 A3001 RMK AO2
KEDC 241215Z AUTO 00000KT 10SM CLR 05/00 A3000 RMK AO2
KEDC 241155Z AUTO 00000KT 10SM CLR 05/01 A3000 RMK AO2
KEDC 241135Z AUTO 00000KT 6SM HZ CLR 05/01 A3000 RMK AO2
KEDC 241115Z AUTO 00000KT 7SM CLR 05/01 A3000 RMK AO2
KEDC 241055Z AUTO 00000KT 5SM HZ CLR 05/01 A3001 RMK AO2
KEDC 241035Z AUTO 00000KT 6SM HZ CLR 05/01 A3001 RMK AO2
KEDC 241015Z AUTO 00000KT 10SM CLR 06/00 A3001 RMK AO2
KEDC 240955Z AUTO 00000KT 10SM CLR 05/01 A3002 RMK AO2
KEDC 240935Z AUTO 00000KT 10SM CLR 07/00 A3002 RMK AO2
KEDC 240915Z AUTO 00000KT 7SM CLR 07/00 A3002 RMK AO2
KEDC 240855Z AUTO 00000KT 5SM HZ CLR 07/00 A3003 RMK AO2
KEDC 240835Z AUTO 00000KT 7SM CLR 07/00 A3004 RMK AO2
KEDC 240815Z AUTO 00000KT 7SM CLR 07/00 A3004 RMK AO2
KEDC 240755Z AUTO 00000KT 10SM CLR 07/00 A3004 RMK AO2
KEDC 240735Z AUTO 00000KT 9SM CLR 08/00 A3005 RMK AO2
KEDC 240715Z AUTO 00000KT 10SM CLR 08/00 A3005 RMK AO2
KEDC 240655Z AUTO 00000KT 5SM HZ CLR 08/00 A3006 RMK AO2
KEDC 240635Z AUTO 00000KT 4SM HZ CLR 08/00 A3006 RMK AO2
KEDC 240615Z AUTO 00000KT 3SM HZ CLR 09/00 A3007 RMK AO2
KEDC 240555Z AUTO 00000KT 4SM HZ CLR 09/00 A3007 RMK AO2
KEDC 240535Z AUTO 00000KT 4SM HZ CLR 09/00 A3008 RMK AO2
KEDC 240515Z AUTO 00000KT 4SM HZ CLR 09/00 A3008 RMK AO2
KEDC 240455Z AUTO 00000KT 4SM HZ CLR 09/00 A3008 RMK AO2
KEDC 240435Z AUTO 00000KT 4SM HZ CLR 09/00 A3009 RMK AO2
KEDC 240415Z AUTO 00000KT 4SM HZ CLR 10/00 A3009 RMK AO2
KEDC 240355Z AUTO 00000KT 4SM HZ CLR 11/00 A3009 RMK AO2
KEDC 240335Z AUTO 00000KT 5SM HZ CLR 10/00 A3010 RMK AO2
KEDC 240315Z AUTO 00000KT 10SM CLR 12/00 A3010 RMK AO2
KEDC 240255Z AUTO 00000KT 5SM HZ CLR 12/00 A3010 RMK AO2
KEDC 240235Z AUTO 00000KT 5SM HZ CLR 12/00 A3009 RMK AO2
KEDC 240215Z AUTO 00000KT 5SM HZ CLR 12/00 A3009 RMK AO2
KEDC 240155Z AUTO 00000KT 6SM HZ CLR 13/00 A3009 RMK AO2
KEDC 240135Z AUTO 00000KT 10SM CLR 13/00 A3009 RMK AO2
KEDC 240115Z AUTO 00000KT 10SM CLR 14/M01 A3009 RMK AO2
KEDC 240055Z AUTO 00000KT 10SM CLR 14/M01 A3008 RMK AO2
KEDC 240035Z AUTO 00000KT 10SM CLR 15/M02 A3008 RMK AO2
KEDC 240015Z AUTO 00000KT 10SM CLR 15/M02 A3007 RMK AO2
KEDC 232355Z AUTO 00000KT 10SM CLR 16/M02 A3008 RMK AO2
KEDC 232335Z AUTO 00000KT 10SM CLR 17/M02 A3008 RMK AO2
KEDC 232315Z AUTO 00000KT 9SM CLR 18/M02 A3008 RMK AO2
KEDC 232255Z AUTO 00000KT 10SM CLR 19/M02 A3007 RMK AO2
KEDC 232235Z AUTO 17003KT 10SM CLR 19/M02 A3007 RMK AO2
KEDC 232215Z AUTO 00000KT 10SM CLR 19/M02 A3008 RMK AO2
KEDC 232155Z AUTO 00000KT 10SM CLR 20/M02 A3008 RMK AO2
KEDC 232135Z AUTO 00000KT 10SM CLR 20/M02 A3007 RMK AO2
KEDC 232115Z AUTO 29006KT 10SM CLR 20/M02 A3008 RMK AO2
KEDC 232055Z AUTO 00000KT 10SM CLR 19/M02 A3008 RMK AO2
KEDC 232035Z AUTO 00000KT 10SM CLR 19/M02 A3009 RMK AO2
KEDC 232015Z AUTO 26004KT 10SM CLR 19/M02 A3010 RMK AO2
KEDC 231955Z AUTO 24004KT 10SM CLR 19/M02 A3010 RMK AO2
KEDC 231935Z AUTO 23004KT 9SM CLR 19/M02 A3012 RMK AO2
KEDC 231915Z AUTO 00000KT 5SM HZ CLR 18/M02 A3013 RMK AO2
KEDC 231855Z AUTO 20004KT 10SM CLR 18/M01 A3014 RMK AO2
KEDC 231835Z AUTO 25004KT 10SM CLR 17/M02 A3015 RMK AO2
KEDC 231815Z AUTO 00000KT 10SM CLR 17/M03 A3017 RMK AO2
KEDC 231755Z AUTO 00000KT 10SM CLR 16/M03 A3019 RMK AO2
KEDC 231735Z AUTO 00000KT 10SM CLR 15/M03 A3020 RMK AO2
KEDC 231715Z AUTO 00000KT 10SM CLR 14/M03 A3021 RMK AO2
KEDC 231655Z AUTO 00000KT 7SM CLR 13/M04 A3022 RMK AO2
KEDC 231635Z AUTO 00000KT 10SM CLR 13/M04 A3023 RMK AO2
KEDC 231615Z AUTO 00000KT 10SM CLR 12/M05 A3023 RMK AO2
KEDC 231555Z AUTO 00000KT 10SM CLR 12/M05 A3024 RMK AO2
KEDC 231535Z AUTO 00000KT 10SM CLR 11/M05 A3024 RMK AO2
KEDC 231515Z AUTO 00000KT 10SM CLR 10/M04 A3024 RMK AO2
KEDC 231455Z AUTO 00000KT 10SM CLR 09/M03 A3024 RMK AO2
KEDC 231435Z AUTO 00000KT 10SM CLR 08/M02 A3023 RMK AO2
KEDC 231415Z AUTO 33005KT 10SM CLR 07/M02 A3023 RMK AO2
KEDC 231355Z AUTO 32004KT 10SM CLR 05/M02 A3023 RMK AO2
KEDC 231335Z AUTO 00000KT 10SM CLR 04/M02 A3022 RMK AO2
KEDC 231315Z AUTO 00000KT 10SM CLR 03/M03 A3022 RMK AO2
KEDC 231255Z AUTO 00000KT 10SM CLR 03/M04 A3022 RMK AO2
KEDC 231235Z AUTO 30003KT 10SM CLR 04/M04 A3021 RMK AO2
KEDC 231215Z AUTO 32005KT 10SM CLR 04/M04 A3021 RMK AO2